createdAt,value
2019-03-21T00:01:11.799Z,1.50
2019-03-21T00:03:53.708Z,1.60
2019-03-21T00:06:35.811Z,1.50
2019-03-21T00:09:17.624Z,1.50
2019-03-21T00:11:59.551Z,1.40
2019-03-21T00:14:41.291Z,1.50
2019-03-21T00:17:23.117Z,1.40
2019-03-21T00:20:04.963Z,1.30
2019-03-21T00:22:46.831Z,1.20
2019-03-21T00:25:28.680Z,1.40
2019-03-21T00:28:10.535Z,1.20
2019-03-21T00:36:15.119Z,1.40
2019-03-21T00:38:56.975Z,1.30
2019-03-21T00:41:39.135Z,1.40
2019-03-21T00:44:22.121Z,1.30
2019-03-21T00:49:46.056Z,1.30
2019-03-21T00:52:27.909Z,1.30
2019-03-21T00:55:09.833Z,1.10
2019-03-21T00:57:53.699Z,1.30
2019-03-21T01:00:35.656Z,1.20
2019-03-21T01:03:17.711Z,1.20
2019-03-21T01:05:59.596Z,1.10
2019-03-21T01:08:41.595Z,1.00
2019-03-21T01:11:23.356Z,1.10
2019-03-21T01:14:05.360Z,1.20
2019-03-21T01:16:47.200Z,1.20
2019-03-21T01:19:28.281Z,1.10
2019-03-21T01:22:10.176Z,1.30
2019-03-21T01:24:52.196Z,1.20
2019-03-21T01:27:34.187Z,1.10
2019-03-21T01:30:18.056Z,1.10
2019-03-21T01:33:01.060Z,1.20
2019-03-21T01:35:42.984Z,1.10
2019-03-21T01:38:24.920Z,1.10
2019-03-21T01:41:06.714Z,1.20
2019-03-21T01:43:48.459Z,1.10
2019-03-21T01:46:30.482Z,1.10
2019-03-21T01:49:12.483Z,1.10
2019-03-21T01:51:54.372Z,1.00
2019-03-21T01:54:36.400Z,1.10
2019-03-21T01:57:38.366Z,1.10
2019-03-21T02:00:20.408Z,1.20
2019-03-21T02:03:02.102Z,1.00
2019-03-21T02:05:44.023Z,1.00
2019-03-21T02:08:26.047Z,1.00
2019-03-21T02:11:08.108Z,1.00
2019-03-21T02:13:49.868Z,1.00
2019-03-21T02:16:31.683Z,0.90
2019-03-21T02:19:13.812Z,0.80
2019-03-21T02:21:55.775Z,0.80
2019-03-21T02:24:37.774Z,0.80
2019-03-21T02:27:19.615Z,0.80
2019-03-21T02:30:01.627Z,0.70
2019-03-21T02:32:44.599Z,0.80
2019-03-21T02:35:26.831Z,0.80
2019-03-21T02:38:08.865Z,0.90
2019-03-21T02:40:50.767Z,0.80
2019-03-21T02:43:33.736Z,0.80
2019-03-21T02:46:14.825Z,0.70
2019-03-21T02:48:56.762Z,0.60
2019-03-21T02:51:38.561Z,0.70
2019-03-21T02:54:22.412Z,0.70
2019-03-21T02:57:04.395Z,0.70
2019-03-21T02:59:45.583Z,0.70
2019-03-21T03:02:27.673Z,0.40
2019-03-21T03:05:09.659Z,0.60
2019-03-21T03:07:51.445Z,0.60
2019-03-21T03:10:33.384Z,0.60
2019-03-21T03:13:15.412Z,0.70
2019-03-21T03:15:56.451Z,0.70
2019-03-21T03:18:38.345Z,0.50
2019-03-21T03:21:20.266Z,0.60
2019-03-21T03:24:01.612Z,0.70
2019-03-21T03:26:43.596Z,0.60
2019-03-21T03:29:25.359Z,0.50
2019-03-21T03:32:07.213Z,0.60
2019-03-21T03:34:49.257Z,0.60
2019-03-21T03:37:31.309Z,0.50
2019-03-21T03:40:12.449Z,0.50
2019-03-21T03:42:54.518Z,0.50
2019-03-21T03:45:38.323Z,0.40
2019-03-21T03:48:20.368Z,0.50
2019-03-21T03:51:02.164Z,0.60
2019-03-21T03:53:44.033Z,0.50
2019-03-21T03:56:46.312Z,0.40
2019-03-21T03:59:28.407Z,0.40
2019-03-21T04:02:10.377Z,0.30
2019-03-21T04:04:52.279Z,0.30
2019-03-21T04:07:34.211Z,0.30
2019-03-21T04:10:16.192Z,0.40
2019-03-21T04:12:57.881Z,0.20
2019-03-21T04:15:51.731Z,0.20
2019-03-21T04:18:23.769Z,0.20
2019-03-21T04:21:05.713Z,0.20
2019-03-21T04:23:47.470Z,0.20
2019-03-21T04:26:29.546Z,0.20
2019-03-21T04:29:11.456Z,0.10
2019-03-21T04:31:53.466Z,0.20
2019-03-21T04:34:35.509Z,0.20
2019-03-21T04:37:17.615Z,0.10
2019-03-21T04:39:59.409Z,0.10
2019-03-21T04:42:41.088Z,0.10
2019-03-21T04:45:23.044Z,0.20
2019-03-21T04:48:04.199Z,0.10
2019-03-21T04:50:45.185Z,0.00
2019-03-21T04:53:28.112Z,0.10
2019-03-21T04:56:09.986Z,-0.10
2019-03-21T04:58:53.813Z,-0.20
2019-03-21T05:01:35.669Z,-0.10
2019-03-21T05:04:03.944Z,-0.10
2019-03-21T05:06:45.650Z,-0.10
2019-03-21T05:09:27.489Z,-0.10
2019-03-21T05:12:09.485Z,0.00
2019-03-21T05:14:51.398Z,-0.10
2019-03-21T05:17:33.537Z,-0.10
2019-03-21T05:20:15.385Z,-0.10
2019-03-21T05:22:58.419Z,-0.10
2019-03-21T05:25:40.427Z,-0.20
2019-03-21T05:28:22.260Z,-0.10
2019-03-21T05:31:04.152Z,-0.10
2019-03-21T05:33:47.020Z,-0.20
2019-03-21T05:36:28.979Z,0.00
2019-03-21T05:39:11.006Z,0.00
2019-03-21T05:41:53.028Z,-0.10
2019-03-21T05:44:34.981Z,-0.20
2019-03-21T05:47:16.663Z,-0.20
2019-03-21T05:49:58.516Z,-0.20
2019-03-21T05:52:40.535Z,-0.20
2019-03-21T05:55:22.355Z,-0.10
2019-03-21T05:58:04.349Z,-0.10
2019-03-21T06:00:46.344Z,-0.10
2019-03-21T06:03:28.225Z,-0.20
2019-03-21T06:06:10.127Z,-0.10
2019-03-21T06:08:51.917Z,-0.10
2019-03-21T06:11:33.720Z,-0.10
2019-03-21T06:14:15.943Z,0.00
2019-03-21T06:16:57.839Z,-0.20
2019-03-21T06:19:39.907Z,0.00
2019-03-21T06:22:21.899Z,0.00
2019-03-21T06:25:03.797Z,0.20
2019-03-21T06:27:45.838Z,0.00
2019-03-21T06:30:27.007Z,-0.10
2019-03-21T06:33:08.787Z,0.00
2019-03-21T06:35:50.805Z,0.10
2019-03-21T06:38:32.660Z,0.10
2019-03-21T06:41:14.646Z,0.20
2019-03-21T06:43:56.747Z,0.20
2019-03-21T06:46:48.919Z,0.20
2019-03-21T06:49:22.601Z,0.30
2019-03-21T06:52:04.590Z,0.40
2019-03-21T06:54:46.604Z,0.30
2019-03-21T06:57:28.575Z,0.40
2019-03-21T07:00:10.457Z,0.40
2019-03-21T07:02:52.571Z,0.60
2019-03-21T07:05:34.739Z,0.60
2019-03-21T07:08:16.827Z,0.70
2019-03-21T07:10:58.824Z,0.70
2019-03-21T07:13:40.595Z,0.80
2019-03-21T07:16:22.623Z,0.90
2019-03-21T07:19:04.426Z,1.10
2019-03-21T07:21:46.751Z,1.10
2019-03-21T07:24:28.591Z,1.20
2019-03-21T07:27:10.456Z,1.30
2019-03-21T07:29:52.427Z,1.30
2019-03-21T07:32:34.319Z,1.50
2019-03-21T07:35:16.297Z,1.50
2019-03-21T07:37:58.139Z,1.60
2019-03-21T07:40:43.066Z,1.70
2019-03-21T07:43:44.112Z,1.80
2019-03-21T07:46:52.286Z,1.90
2019-03-21T07:49:54.243Z,2.00
2019-03-21T07:52:56.518Z,2.20
2019-03-21T07:55:58.497Z,2.30
2019-03-21T07:59:00.429Z,2.40
2019-03-21T08:02:01.656Z,2.40
2019-03-21T08:05:03.646Z,2.60
2019-03-21T08:08:05.896Z,2.70
2019-03-21T08:11:06.995Z,2.90
2019-03-21T08:14:14.348Z,2.90
2019-03-21T08:17:17.328Z,3.30
2019-03-21T08:20:18.377Z,3.40
2019-03-21T08:23:21.647Z,3.50
2019-03-21T08:26:22.812Z,3.70
2019-03-21T08:29:24.880Z,4.00
2019-03-21T08:32:26.307Z,4.30
2019-03-21T08:35:28.364Z,4.40
2019-03-21T08:38:29.433Z,4.60
2019-03-21T08:41:40.557Z,4.70
2019-03-21T08:44:42.755Z,5.00
2019-03-21T08:47:44.733Z,4.90
2019-03-21T08:50:46.728Z,5.10
2019-03-21T08:53:48.742Z,5.30
2019-03-21T08:56:49.930Z,5.50
2019-03-21T08:59:52.008Z,5.60
2019-03-21T09:02:53.804Z,5.70
2019-03-21T09:05:56.012Z,6.00
2019-03-21T09:08:57.943Z,6.00
2019-03-21T09:11:59.132Z,6.10
2019-03-21T09:15:10.241Z,6.40
2019-03-21T09:18:12.103Z,6.80
2019-03-21T09:21:19.745Z,7.00
2019-03-21T09:24:17.444Z,7.20
2019-03-21T09:27:19.503Z,7.60
2019-03-21T09:30:21.627Z,7.90
2019-03-21T09:33:23.788Z,8.00
2019-03-21T09:36:05.776Z,8.40
2019-03-21T09:38:47.848Z,8.80
2019-03-21T09:41:29.768Z,8.90
2019-03-21T09:44:11.683Z,9.30
2019-03-21T09:46:53.592Z,9.50
2019-03-21T09:49:35.476Z,9.80
2019-03-21T09:52:17.610Z,10.00
2019-03-21T09:54:59.651Z,10.20
2019-03-21T09:57:41.579Z,10.50
2019-03-21T10:00:23.610Z,10.80
2019-03-21T10:03:05.552Z,11.00
2019-03-21T10:05:47.320Z,11.10
2019-03-21T10:08:29.336Z,11.20
2019-03-21T10:11:11.212Z,11.40
2019-03-21T10:13:53.064Z,11.70
2019-03-21T10:16:35.046Z,11.60
2019-03-21T10:19:17.175Z,11.90
2019-03-21T10:21:59.215Z,12.00
2019-03-21T10:24:41.091Z,12.20
2019-03-21T10:27:23.273Z,12.40
2019-03-21T10:30:05.251Z,12.60
2019-03-21T10:32:48.076Z,12.70
2019-03-21T10:35:32.561Z,12.70
2019-03-21T10:38:13.068Z,12.70
2019-03-21T10:40:55.104Z,12.90
2019-03-21T10:43:37.223Z,12.70
2019-03-21T10:46:19.244Z,12.50
2019-03-21T10:49:01.044Z,12.70
2019-03-21T10:51:54.123Z,12.80
2019-03-21T10:54:26.762Z,12.70
2019-03-21T10:57:08.775Z,12.90
2019-03-21T10:59:53.746Z,13.00
2019-03-21T11:02:35.714Z,13.30
2019-03-21T11:05:17.664Z,13.40
2019-03-21T11:07:59.879Z,13.60
2019-03-21T11:10:42.175Z,13.70
2019-03-21T11:13:23.948Z,13.70
2019-03-21T11:16:05.916Z,13.90
2019-03-21T11:18:47.840Z,14.00
2019-03-21T11:21:29.843Z,14.20
2019-03-21T11:24:12.235Z,14.30
2019-03-21T11:26:54.260Z,14.40
2019-03-21T11:29:35.407Z,14.50
2019-03-21T11:32:17.247Z,14.70
2019-03-21T11:34:59.108Z,14.70
2019-03-21T11:37:41.205Z,15.00
2019-03-21T11:40:23.070Z,15.00
2019-03-21T11:43:06.868Z,15.10
2019-03-21T11:45:49.528Z,15.00
2019-03-21T11:48:31.457Z,15.00
2019-03-21T11:51:13.399Z,14.90
2019-03-21T11:53:55.388Z,15.00
2019-03-21T11:56:37.316Z,15.10
2019-03-21T11:59:19.180Z,15.00
2019-03-21T12:02:01.103Z,15.10
2019-03-21T12:04:43.008Z,15.20
2019-03-21T12:07:24.038Z,15.20
2019-03-21T12:10:05.924Z,15.20
2019-03-21T12:12:47.861Z,15.00
2019-03-21T12:15:29.704Z,15.20
2019-03-21T12:18:11.651Z,15.20
2019-03-21T12:20:53.408Z,15.20
2019-03-21T12:23:35.347Z,15.20
2019-03-21T12:26:17.268Z,15.30
2019-03-21T12:28:59.389Z,15.40
2019-03-21T12:31:41.601Z,15.30
2019-03-21T12:34:23.256Z,15.30
2019-03-21T12:37:05.148Z,15.10
2019-03-21T12:39:47.286Z,15.30
2019-03-21T12:42:50.414Z,15.20
2019-03-21T12:45:32.562Z,15.30
2019-03-21T12:48:14.452Z,15.20
2019-03-21T12:50:56.329Z,15.30
2019-03-21T12:53:38.378Z,15.20
2019-03-21T12:56:20.343Z,15.20
2019-03-21T12:59:02.296Z,15.20
2019-03-21T13:01:44.109Z,15.20
2019-03-21T13:04:26.043Z,15.20
2019-03-21T13:07:07.963Z,15.30
2019-03-21T13:09:49.990Z,15.30
2019-03-21T13:12:32.190Z,15.30
2019-03-21T13:15:14.117Z,15.40
2019-03-21T13:17:57.027Z,15.50
2019-03-21T13:20:38.133Z,15.40
2019-03-21T13:23:19.936Z,15.50
2019-03-21T13:26:03.082Z,15.40
2019-03-21T13:28:45.188Z,15.40
2019-03-21T13:31:27.020Z,15.40
2019-03-21T13:34:08.825Z,15.40
2019-03-21T13:36:50.719Z,15.40
2019-03-21T13:39:32.622Z,15.40
2019-03-21T13:42:14.573Z,15.40
2019-03-21T13:44:56.459Z,15.40
2019-03-21T13:47:38.393Z,15.50
2019-03-21T13:50:21.490Z,15.50
2019-03-21T13:53:06.469Z,15.50
2019-03-21T13:55:47.400Z,15.50
2019-03-21T13:58:29.351Z,15.60
2019-03-21T14:01:11.318Z,15.50
2019-03-21T14:03:52.893Z,15.50
2019-03-21T14:06:35.052Z,15.40
2019-03-21T14:09:16.872Z,15.50
2019-03-21T14:11:58.594Z,15.40
2019-03-21T14:14:39.715Z,15.40
2019-03-21T14:17:22.394Z,15.50
2019-03-21T14:20:03.953Z,15.50
2019-03-21T14:22:45.927Z,15.40
2019-03-21T14:25:27.934Z,15.40
2019-03-21T14:28:09.765Z,15.30
2019-03-21T14:30:51.852Z,15.40
2019-03-21T14:33:33.592Z,15.30
2019-03-21T14:36:15.616Z,15.30
2019-03-21T14:38:57.756Z,15.40
2019-03-21T14:41:39.533Z,15.30
2019-03-21T14:44:21.332Z,15.20
2019-03-21T14:47:03.304Z,15.20
2019-03-21T14:49:45.236Z,15.30
2019-03-21T14:52:27.120Z,15.30
2019-03-21T14:55:09.123Z,15.30
2019-03-21T14:57:51.048Z,15.30
2019-03-21T15:00:33.044Z,15.40
2019-03-21T15:03:14.889Z,15.40
2019-03-21T15:05:56.921Z,15.30
2019-03-21T15:08:38.884Z,15.30
2019-03-21T15:11:20.802Z,15.30
2019-03-21T15:14:02.722Z,15.20
2019-03-21T15:16:45.548Z,15.30
2019-03-21T15:19:27.549Z,15.20
2019-03-21T15:22:09.465Z,15.10
2019-03-21T15:24:51.485Z,15.20
2019-03-21T15:27:33.584Z,15.30
2019-03-21T15:30:15.783Z,15.20
2019-03-21T15:32:57.695Z,15.20
2019-03-21T15:35:39.820Z,15.10
2019-03-21T15:38:21.885Z,15.10
2019-03-21T15:41:06.004Z,15.10
2019-03-21T15:43:47.581Z,15.10
2019-03-21T15:46:28.600Z,15.10
2019-03-21T15:49:10.744Z,15.00
2019-03-21T15:51:52.514Z,15.00
2019-03-21T15:54:34.441Z,15.00
2019-03-21T15:57:16.308Z,14.90
2019-03-21T15:59:58.080Z,14.80
2019-03-21T16:02:40.127Z,14.90
2019-03-21T16:05:22.016Z,14.80
2019-03-21T16:08:03.843Z,14.70
2019-03-21T16:10:45.720Z,14.80
2019-03-21T16:13:27.375Z,14.60
2019-03-21T16:16:09.022Z,14.50
2019-03-21T16:18:51.099Z,14.50
2019-03-21T16:21:33.160Z,14.40
2019-03-21T16:24:14.997Z,14.30
2019-03-21T16:26:56.769Z,14.30
2019-03-21T16:29:38.635Z,14.20
2019-03-21T16:32:20.750Z,14.10
2019-03-21T16:35:05.524Z,14.10
2019-03-21T16:37:47.580Z,14.00
2019-03-21T16:40:29.447Z,13.90
2019-03-21T16:43:10.545Z,13.80
2019-03-21T16:45:52.448Z,13.50
2019-03-21T16:48:34.387Z,13.50
2019-03-21T16:51:16.255Z,13.40
2019-03-21T16:53:58.081Z,13.20
2019-03-21T16:56:40.220Z,13.20
2019-03-21T16:59:22.071Z,12.90
2019-03-21T17:02:03.982Z,12.90
2019-03-21T17:04:45.918Z,12.80
2019-03-21T17:07:27.992Z,12.60
2019-03-21T17:10:10.115Z,12.60
2019-03-21T17:12:51.907Z,12.40
2019-03-21T17:15:33.916Z,12.20
2019-03-21T17:18:15.723Z,12.10
2019-03-21T17:20:57.431Z,12.00
2019-03-21T17:23:39.527Z,12.00
2019-03-21T17:26:21.336Z,11.80
2019-03-21T17:29:03.285Z,11.60
2019-03-21T17:31:45.031Z,11.40
2019-03-21T17:34:26.984Z,11.40
2019-03-21T17:37:09.025Z,11.40
2019-03-21T17:39:51.072Z,11.20
2019-03-21T17:42:32.100Z,11.00
2019-03-21T17:45:14.040Z,10.90
2019-03-21T17:47:55.808Z,10.80
2019-03-21T17:50:37.728Z,10.60
2019-03-21T17:53:19.615Z,10.60
2019-03-21T17:56:01.515Z,10.40
2019-03-21T17:58:42.672Z,10.40
2019-03-21T18:01:24.663Z,10.30
2019-03-21T18:04:08.540Z,10.20
2019-03-21T18:06:50.457Z,10.20
2019-03-21T18:09:32.481Z,10.00
2019-03-21T18:12:14.427Z,9.90
2019-03-21T18:14:56.555Z,9.90
2019-03-21T18:17:38.241Z,9.80
2019-03-21T18:20:20.261Z,9.70
2019-03-21T18:23:02.121Z,9.60
2019-03-21T18:25:44.208Z,9.50
2019-03-21T18:28:26.160Z,9.40
2019-03-21T18:31:08.301Z,9.30
2019-03-21T18:33:49.393Z,9.30
2019-03-21T18:36:31.251Z,9.30
2019-03-21T18:39:14.303Z,9.10
2019-03-21T18:41:56.080Z,9.00
2019-03-21T18:44:37.893Z,8.90
2019-03-21T18:47:19.717Z,8.90
2019-03-21T18:50:01.789Z,8.90
2019-03-21T18:52:44.835Z,8.80
2019-03-21T18:55:26.617Z,8.70
2019-03-21T18:58:08.524Z,8.40
2019-03-21T19:00:50.265Z,8.30
2019-03-21T19:03:32.376Z,8.30
2019-03-21T19:06:14.268Z,8.10
2019-03-21T19:08:56.079Z,8.10
2019-03-21T19:11:37.965Z,8.10
2019-03-21T19:14:20.104Z,8.10
2019-03-21T19:17:01.987Z,8.10
2019-03-21T19:19:43.847Z,7.80
2019-03-21T19:22:25.773Z,7.90
2019-03-21T19:25:17.781Z,7.80
2019-03-21T19:27:50.808Z,7.70
2019-03-21T19:30:33.624Z,7.70
2019-03-21T19:33:15.408Z,7.70
2019-03-21T19:35:57.367Z,7.60
2019-03-21T19:38:39.117Z,7.60
2019-03-21T19:41:21.020Z,7.50
2019-03-21T19:44:03.061Z,7.60
2019-03-21T19:46:44.880Z,7.40
2019-03-21T19:49:26.753Z,7.30
2019-03-21T19:52:08.651Z,7.20
2019-03-21T19:54:50.439Z,7.30
2019-03-21T19:57:32.333Z,7.00
2019-03-21T20:00:14.412Z,7.00
2019-03-21T20:02:56.218Z,7.00
2019-03-21T20:05:38.273Z,7.00
2019-03-21T20:08:20.205Z,6.90
2019-03-21T20:11:02.005Z,6.80
2019-03-21T20:13:44.011Z,6.70
2019-03-21T20:16:26.076Z,6.80
2019-03-21T20:19:07.972Z,6.70
2019-03-21T20:21:49.886Z,6.70
2019-03-21T20:24:31.907Z,6.70
2019-03-21T20:27:14.008Z,6.60
2019-03-21T20:29:55.959Z,6.70
2019-03-21T20:32:37.952Z,6.50
2019-03-21T20:35:19.858Z,6.50
2019-03-21T20:38:02.673Z,6.50
2019-03-21T20:40:44.461Z,6.30
2019-03-21T20:43:26.539Z,6.30
2019-03-21T20:46:08.520Z,6.20
2019-03-21T20:48:50.532Z,6.10
2019-03-21T20:51:32.436Z,6.10
2019-03-21T20:54:14.563Z,6.00
2019-03-21T20:56:56.341Z,6.10
2019-03-21T20:59:38.582Z,6.10
2019-03-21T21:02:20.476Z,6.10
2019-03-21T21:05:02.432Z,6.00
2019-03-21T21:07:44.416Z,6.00
2019-03-21T21:10:28.131Z,5.90
2019-03-21T21:13:10.224Z,5.90
2019-03-21T21:15:52.170Z,5.90
2019-03-21T21:18:36.058Z,6.00
2019-03-21T21:23:46.885Z,5.80
2019-03-21T21:26:29.312Z,5.90
2019-03-21T21:29:11.319Z,5.90
2019-03-21T21:31:53.205Z,5.70
2019-03-21T21:34:35.280Z,5.70
2019-03-21T21:37:19.223Z,5.60
2019-03-21T21:40:00.797Z,5.60
2019-03-21T21:42:42.919Z,5.60
2019-03-21T21:45:24.794Z,5.50
2019-03-21T21:48:06.801Z,5.50
2019-03-21T21:50:48.789Z,5.40
2019-03-21T21:53:30.983Z,5.40
2019-03-21T21:56:17.543Z,5.40
2019-03-21T21:58:55.968Z,5.50
2019-03-21T22:01:37.852Z,5.20
2019-03-21T22:04:20.004Z,5.10
2019-03-21T22:07:01.879Z,4.90
2019-03-21T22:09:43.959Z,4.90
2019-03-21T22:12:29.003Z,5.00
2019-03-21T22:15:10.851Z,5.10
2019-03-21T22:17:52.892Z,5.10
2019-03-21T22:20:35.092Z,5.00
2019-03-21T22:23:18.947Z,5.10
2019-03-21T22:26:01.016Z,5.00
2019-03-21T22:28:42.813Z,5.00
2019-03-21T22:31:24.960Z,4.80
2019-03-21T22:34:06.915Z,4.90
2019-03-21T22:36:49.822Z,4.70
2019-03-21T22:39:31.922Z,4.40
2019-03-21T22:42:13.887Z,4.40
2019-03-21T22:44:55.755Z,4.50
2019-03-21T22:47:37.964Z,4.60
2019-03-21T22:50:20.027Z,4.30
2019-03-21T22:53:01.787Z,4.40
2019-03-21T22:55:43.624Z,4.40
2019-03-21T22:58:31.573Z,4.20
2019-03-21T23:01:09.932Z,4.20
2019-03-21T23:03:53.639Z,4.20
2019-03-21T23:06:35.404Z,4.10
2019-03-21T23:09:17.395Z,4.30
2019-03-21T23:11:59.651Z,4.30
2019-03-21T23:14:42.491Z,4.20
2019-03-21T23:17:24.620Z,4.20
2019-03-21T23:20:06.649Z,4.20
2019-03-21T23:22:48.619Z,4.20
2019-03-21T23:25:30.459Z,4.20
2019-03-21T23:28:14.614Z,4.20
2019-03-21T23:33:23.905Z,4.30
2019-03-21T23:36:07.884Z,4.20
2019-03-21T23:38:49.732Z,4.00
2019-03-21T23:41:31.527Z,4.10
2019-03-21T23:44:13.485Z,4.00
2019-03-21T23:46:55.393Z,3.90
2019-03-21T23:49:37.512Z,4.00
2019-03-21T23:52:18.599Z,3.80
2019-03-21T23:55:00.640Z,3.90
2019-03-21T23:57:42.715Z,3.80
